Time;durP1;ratioP1;P1;durP2;ratioP2;P2;SDS_P1;SDS_P2;PMS_P1;PMS_P2;Temp;Humidity;BMP_temperature;BMP_pressure;BME280_temperature;BME280_humidity;BME280_pressure;Samples;Min_cycle;Max_cycle;Signal;HPM_P1;HPM_P2
2022/04/03 13:46:12;;;;;;;19.07;3.33;;;;;;;14.90;51.31;100231.55;1958855;73;26390;-63
2022/04/03 13:48:41;;;;;;;12.18;2.55;;;;;;;14.95;51.09;100222.83;1918331;75;21145;-67
2022/04/03 13:51:12;;;;;;;11.83;2.15;;;;;;;15.04;50.77;100239.45;1918204;75;21083;-63
2022/04/03 13:53:42;;;;;;;15.72;2.30;;;;;;;15.15;50.53;100229.95;1918260;75;21087;-66
2022/04/03 13:56:11;;;;;;;17.65;3.20;;;;;;;15.19;50.21;100245.55;1917545;75;21449;-66
2022/04/03 13:58:42;;;;;;;14.15;2.65;;;;;;;15.22;50.01;100231.25;1918349;75;21564;-67
2022/04/03 14:01:11;;;;;;;13.15;1.98;;;;;;;15.23;49.88;100235.14;1918164;75;21470;-63
2022/04/03 14:03:39;;;;;;;6.62;1.80;;;;;;;15.24;49.76;100240.80;1918337;75;21423;-63
2022/04/03 14:06:08;;;;;;;7.50;1.67;;;;;;;15.19;49.66;100237.59;1918208;75;21008;-65
2022/04/03 14:08:37;;;;;;;11.12;2.00;;;;;;;15.02;49.69;100232.56;1916062;75;21032;-62
2022/04/03 14:11:20;;;;;;;11.35;1.90;;;;;;;14.80;49.92;100239.25;1918313;75;21043;-63
2022/04/03 14:13:49;;;;;;;;;;;;;;;14.72;50.18;100243.34;1897090;74;21419;-66
2022/04/03 14:16:18;;;;;;;11.88;1.80;;;;;;;14.62;50.47;100249.23;1918231;74;20147;-66
2022/04/03 14:18:48;;;;;;;7.28;2.08;;;;;;;14.58;50.52;100246.41;1918412;75;21125;-65
2022/04/03 14:21:18;;;;;;;9.65;1.67;;;;;;;14.60;50.49;100248.48;1916349;74;21076;-63
2022/04/03 14:23:47;;;;;;;14.98;1.60;;;;;;;14.54;50.59;100238.73;1885684;76;21125;-64
2022/04/03 14:26:16;;;;;;;6.58;1.82;;;;;;;14.57;50.60;100235.45;1885431;76;21063;-61
2022/04/03 14:28:44;;;;;;;5.90;1.82;;;;;;;14.59;50.46;100226.92;1885716;76;21145;-64
2022/04/03 14:31:13;;;;;;;9.95;1.70;;;;;;;14.65;50.36;100229.17;1885800;76;21059;-65
2022/04/03 14:33:42;;;;;;;7.05;1.65;;;;;;;14.67;50.24;100233.05;1887805;75;21031;-62
2022/04/03 14:36:13;;;;;;;11.15;1.82;;;;;;;14.56;50.25;100223.11;1885721;76;21124;-64
2022/04/03 14:38:41;;;;;;;6.85;1.67;;;;;;;14.46;50.47;100222.01;1885642;76;21043;-61
2022/04/03 14:41:12;;;;;;;8.43;1.80;;;;;;;14.34;50.63;100228.07;1885721;75;21490;-61
2022/04/03 14:43:41;;;;;;;12.30;1.95;;;;;;;14.18;50.87;100236.11;1887809;75;21105;-63
2022/04/03 14:46:10;;;;;;;8.13;2.05;;;;;;;14.05;51.10;100251.90;1877070;75;21490;-60
2022/04/03 14:48:39;;;;;;;10.65;2.00;;;;;;;13.96;51.31;100261.72;1873435;76;20997;-61
2022/04/03 14:51:08;;;;;;;15.93;3.67;;;;;;;13.84;51.60;100258.88;1873257;76;21064;-64
2022/04/03 14:53:37;;;;;;;15.83;3.17;;;;;;;13.79;51.76;100254.33;1873695;75;21486;-64
2022/04/03 14:56:06;;;;;;;17.32;5.58;;;;;;;13.75;51.84;100255.47;1873036;76;21056;-63
2022/04/03 14:58:35;;;;;;;11.25;2.62;;;;;;;13.75;51.92;100260.75;1872793;76;21113;-65
2022/04/03 15:01:03;;;;;;;7.83;1.85;;;;;;;13.73;52.13;100257.36;1872760;77;21095;-64
2022/04/03 15:03:32;;;;;;;8.90;2.27;;;;;;;13.68;52.35;100247.52;1879937;75;21024;-62
2022/04/03 15:06:01;;;;;;;18.37;3.55;;;;;;;13.64;52.24;100244.68;1905128;75;21758;-62
2022/04/03 15:08:30;;;;;;;9.08;2.90;;;;;;;13.61;52.44;100239.56;1905208;75;21494;-60
2022/04/03 15:10:59;;;;;;;13.03;3.22;;;;;;;13.58;52.73;100229.19;1890654;75;21036;-62
2022/04/03 15:13:27;;;;;;;7.33;1.40;;;;;;;13.56;52.75;100260.17;1872712;75;21130;-63
2022/04/03 15:15:56;;;;;;;7.17;1.25;;;;;;;13.58;52.71;100274.16;1872836;77;21016;-60
2022/04/03 15:18:24;;;;;;;5.50;1.20;;;;;;;13.59;52.76;100289.91;1872714;76;21165;-61
2022/04/03 15:20:53;;;;;;;9.98;2.10;;;;;;;13.58;53.13;100292.67;1874986;75;21098;-61
2022/04/03 15:23:24;;;;;;;10.15;2.37;;;;;;;13.55;53.16;100287.55;1872704;77;21051;-61
2022/04/03 15:25:52;;;;;;;7.35;1.47;;;;;;;13.49;53.50;100296.69;1872909;76;21132;-63
2022/04/03 15:28:21;;;;;;;12.45;1.37;;;;;;;13.47;53.93;100302.06;1872709;75;21072;-60
2022/04/03 15:30:49;;;;;;;8.88;1.75;;;;;;;13.45;53.67;100309.24;1874340;75;21052;-62
2022/04/03 15:33:18;;;;;;;7.90;3.50;;;;;;;13.41;54.16;100306.41;1872809;76;21044;-61
2022/04/03 15:35:47;;;;;;;9.45;1.77;;;;;;;13.34;54.32;100305.05;1872676;76;21106;-63
2022/04/03 15:38:15;;;;;;;12.95;2.27;;;;;;;13.27;54.56;100308.95;1872932;77;21126;-61
2022/04/03 15:40:44;;;;;;;11.43;3.17;;;;;;;13.24;54.41;100329.81;1872735;77;21060;-63
2022/04/03 15:43:13;;;;;;;14.03;1.60;;;;;;;13.19;54.83;100329.70;1899299;75;20996;-61
2022/04/03 15:45:42;;;;;;;7.80;1.57;;;;;;;13.09;55.00;100337.27;1905041;74;21056;-61
2022/04/03 15:48:10;;;;;;;7.08;1.67;;;;;;;13.05;55.04;100340.55;1905193;75;21130;-61
2022/04/03 15:50:41;;;;;;;5.33;1.50;;;;;;;12.98;55.33;100341.82;1905396;75;21459;-61
2022/04/03 15:53:10;;;;;;;6.30;2.35;;;;;;;12.88;56.02;100353.85;1905222;75;21106;-61
2022/04/03 15:55:39;;;;;;;4.17;1.35;;;;;;;12.83;56.57;100358.53;1905155;74;21505;-63
2022/04/03 15:58:08;;;;;;;8.55;2.05;;;;;;;12.78;56.32;100368.05;1875265;75;21610;-62
2022/04/03 16:00:36;;;;;;;2.92;1.10;;;;;;;12.70;56.86;100365.79;1872907;77;21127;-62
2022/04/03 16:03:06;;;;;;;7.22;1.70;;;;;;;12.54;57.77;100384.27;1872754;75;21095;-60
2022/04/03 16:05:35;;;;;;;14.03;2.15;;;;;;;12.41;57.85;100383.66;1872699;77;21114;-62
2022/04/03 16:08:03;;;;;;;7.92;1.70;;;;;;;12.26;58.72;100405.11;1874822;75;21126;-62
2022/04/03 16:10:33;;;;;;;5.72;1.52;;;;;;;12.11;60.06;100406.74;1872678;77;21044;-62
2022/04/03 16:13:03;;;;;;;10.45;1.92;;;;;;;11.96;60.36;100368.31;1872735;77;21016;-61
2022/04/03 16:15:33;;;;;;;10.00;2.08;;;;;;;11.86;60.13;100367.06;1872807;76;21102;-63
2022/04/03 16:18:04;;;;;;;9.05;1.80;;;;;;;11.76;60.79;100370.60;1872788;77;21111;-61
2022/04/03 16:20:34;;;;;;;5.28;2.00;;;;;;;11.68;61.40;100369.30;1872680;77;21078;-62
2022/04/03 16:23:02;;;;;;;10.88;1.70;;;;;;;11.63;61.45;100383.17;1874738;75;21098;-64
2022/04/03 16:25:31;;;;;;;7.42;1.65;;;;;;;11.59;61.56;100399.13;1872780;77;21012;-63
2022/04/03 16:28:00;;;;;;;8.75;1.55;;;;;;;11.57;61.86;100418.13;1872790;77;21043;-62
2022/04/03 16:30:28;;;;;;;7.75;1.85;;;;;;;11.54;62.46;100434.09;1872671;77;21150;-64
2022/04/03 16:32:57;;;;;;;6.25;1.40;;;;;;;11.47;62.13;100423.92;1875025;75;21119;-62
2022/04/03 16:35:26;;;;;;;2.72;1.00;;;;;;;11.40;62.84;100411.04;1872653;77;21616;-62
2022/04/03 16:37:55;;;;;;;7.45;1.57;;;;;;;11.35;63.05;100420.94;1872891;76;21523;-65
2022/04/03 16:40:23;;;;;;;9.63;1.98;;;;;;;11.28;63.99;100405.02;1872907;77;21439;-65
2022/04/03 16:42:52;;;;;;;10.18;1.92;;;;;;;11.15;64.78;100413.13;1874931;75;21056;-62
2022/04/03 16:45:21;;;;;;;6.60;1.67;;;;;;;11.00;65.67;100413.37;1872651;77;21126;-65
2022/04/03 16:47:49;;;;;;;7.53;1.57;;;;;;;10.89;65.66;100439.34;1872684;76;21083;-65
2022/04/03 16:50:18;;;;;;;2.20;0.60;;;;;;;10.76;66.49;100429.83;1872793;77;21079;-62
2022/04/03 16:52:47;;;;;;;5.72;1.32;;;;;;;10.68;66.53;100407.79;1872794;75;21072;-63
2022/04/03 16:55:15;;;;;;;1.47;0.80;;;;;;;10.56;66.87;100398.64;1905132;75;21012;-64
2022/04/03 16:57:44;;;;;;;5.67;1.55;;;;;;;10.50;67.78;100394.97;1905160;74;21060;-61
2022/04/03 17:00:13;;;;;;;7.15;1.50;;;;;;;10.41;67.38;100421.23;1899409;75;21095;-65
2022/04/03 17:02:42;;;;;;;5.75;1.40;;;;;;;10.39;67.41;100423.08;1872613;77;21134;-65
2022/04/03 17:05:11;;;;;;;4.50;0.80;;;;;;;10.38;67.64;100433.23;1872652;77;21068;-61
2022/04/03 17:07:40;;;;;;;5.08;1.05;;;;;;;10.30;68.39;100414.23;1872617;76;21478;-63
2022/04/03 17:10:12;;;;;;;3.35;1.00;;;;;;;10.24;69.34;100432.92;1872822;75;21451;-64
2022/04/03 17:12:41;;;;;;;4.15;0.85;;;;;;;10.15;70.00;100469.68;1904582;75;21024;-61
2022/04/03 17:15:12;;;;;;;7.67;0.98;;;;;;;10.11;70.26;100469.89;1905162;75;21603;-61
2022/04/03 17:17:41;;;;;;;2.90;0.78;;;;;;;10.07;70.17;100472.22;1905269;75;21032;-63
2022/04/03 17:20:11;;;;;;;2.47;0.85;;;;;;;10.01;69.93;100486.05;1905304;75;21046;-63
2022/04/03 17:22:40;;;;;;;3.20;0.82;;;;;;;9.96;70.32;100503.78;1881348;75;21012;-62
2022/04/03 17:25:10;;;;;;;0.50;0.50;;;;;;;9.98;69.92;100508.52;1872754;77;21114;-62
2022/04/03 17:27:40;;;;;;;2.50;1.15;;;;;;;9.99;69.96;100491.80;1872611;77;21117;-64
2022/04/03 17:30:10;;;;;;;2.52;0.57;;;;;;;9.93;69.82;100458.34;1872026;75;21110;-62
2022/04/03 17:32:39;;;;;;;1.35;0.65;;;;;;;9.87;69.53;100430.52;1874899;75;21012;-64
2022/04/03 17:35:10;;;;;;;3.12;0.72;;;;;;;9.80;69.50;100427.27;1872658;76;21080;-62
2022/04/03 17:37:39;;;;;;;0.68;0.50;;;;;;;9.73;69.78;100467.03;1872770;76;21122;-62
2022/04/03 17:40:10;;;;;;;1.00;0.70;;;;;;;9.66;70.29;100483.05;1872574;77;21447;-62
2022/04/03 17:42:39;;;;;;;2.87;1.10;;;;;;;9.68;70.92;100492.63;1874827;75;21024;-61
2022/04/03 17:45:08;;;;;;;9.33;1.57;;;;;;;9.63;71.09;100467.39;1872863;77;21814;-61
2022/04/03 17:47:36;;;;;;;4.72;1.05;;;;;;;9.64;71.04;100486.17;1872716;75;21091;-64
2022/04/03 17:50:06;;;;;;;2.70;0.80;;;;;;;9.62;71.83;100515.61;1872637;76;21024;-64
2022/04/03 17:52:37;;;;;;;1.87;1.37;;;;;;;9.62;71.40;100502.94;1872678;75;21036;-62
2022/04/03 17:55:10;;;;;;;3.83;1.60;;;;;;;9.56;71.79;100507.97;1872650;77;21036;-62
2022/04/03 17:57:38;;;;;;;3.17;1.10;;;;;;;9.50;72.03;100493.77;1885127;75;21565;-63
2022/04/03 18:00:08;;;;;;;1.42;1.00;;;;;;;9.43;72.30;100480.45;1905217;75;21141;-61
2022/04/03 18:02:43;;;;;;;1.37;1.05;;;;;;;9.40;72.33;100488.45;1905099;75;21118;-61
2022/04/03 18:05:12;;;;;;;3.92;1.02;;;;;;;9.32;73.17;100503.66;1905268;74;21114;-63
2022/04/03 18:07:45;;;;;;;4.83;1.20;;;;;;;9.34;73.09;100520.22;1902729;75;21056;-64
2022/04/03 18:10:13;;;;;;;2.98;1.20;;;;;;;9.34;73.40;100529.42;1904942;74;21036;-63
2022/04/03 18:12:44;;;;;;;5.30;0.88;;;;;;;9.39;73.68;100532.73;1903600;74;21126;-61
2022/04/03 18:15:14;;;;;;;3.92;1.25;;;;;;;9.41;73.70;100512.05;1905086;75;21009;-63
2022/04/03 18:17:43;;;;;;;4.22;0.90;;;;;;;9.43;74.11;100512.84;1905028;75;21220;-61
2022/04/03 18:20:12;;;;;;;1.85;0.90;;;;;;;9.45;74.40;100533.81;1905229;75;21507;-61
2022/04/03 18:22:41;;;;;;;2.98;1.10;;;;;;;9.44;74.28;100545.22;1893501;75;21004;-63
2022/04/03 18:25:13;;;;;;;4.12;0.70;;;;;;;9.45;74.74;100539.07;1872650;77;21122;-64
2022/04/03 18:27:41;;;;;;;5.33;1.22;;;;;;;9.42;74.42;100549.69;1872551;76;21040;-64
2022/04/03 18:30:10;;;;;;;3.10;1.20;;;;;;;9.40;74.54;100567.28;1872542;76;21483;-63
2022/04/03 18:32:39;;;;;;;3.50;1.52;;;;;;;9.40;74.56;100576.48;1874934;75;21196;-61
2022/04/03 18:35:10;;;;;;;3.45;1.10;;;;;;;9.35;74.90;100575.78;1872778;77;21032;-63
2022/04/03 18:37:39;;;;;;;3.77;1.27;;;;;;;9.37;75.37;100593.66;1872720;77;21474;-63
2022/04/03 18:40:09;;;;;;;6.45;1.57;;;;;;;9.39;75.29;100589.23;1872715;77;21153;-61
2022/04/03 18:42:37;;;;;;;3.30;1.00;;;;;;;9.41;75.04;100601.39;1872652;77;21043;-64
2022/04/03 18:45:07;;;;;;;1.37;0.78;;;;;;;9.40;75.00;100588.30;1875116;75;21526;-62
2022/04/03 18:47:35;;;;;;;8.83;1.35;;;;;;;9.43;74.96;100596.09;1871017;76;21146;-64
2022/04/03 18:50:05;;;;;;;4.22;1.30;;;;;;;9.44;75.14;100607.86;1846948;77;21105;-62
2022/04/03 18:52:35;;;;;;;6.80;1.77;;;;;;;9.49;74.94;100612.94;1847057;78;21027;-62
2022/04/03 18:55:04;;;;;;;16.07;2.20;;;;;;;9.51;75.00;100593.17;1884488;75;21461;-63
2022/04/03 18:57:33;;;;;;;7.75;1.87;;;;;;;9.54;74.94;100620.20;1900223;74;21091;-61
2022/04/03 19:00:04;;;;;;;7.53;1.62;;;;;;;9.62;74.63;100614.66;1900179;74;21055;-63
2022/04/03 19:02:33;;;;;;;6.65;1.65;;;;;;;9.65;74.68;100611.46;1900211;75;21089;-61
2022/04/03 19:05:02;;;;;;;9.35;1.27;;;;;;;9.70;74.69;100602.54;1897846;75;21461;-62
2022/04/03 19:07:31;;;;;;;6.92;2.05;;;;;;;9.74;74.40;100602.81;1900178;75;21514;-63
2022/04/03 19:09:59;;;;;;;3.45;1.20;;;;;;;9.76;74.20;100604.48;1900300;75;21003;-61
2022/04/03 19:12:29;;;;;;;6.33;1.95;;;;;;;9.77;74.19;100604.02;1900172;75;21560;-61
2022/04/03 19:14:58;;;;;;;8.40;2.15;;;;;;;9.79;74.10;100614.02;1894793;75;21536;-62
2022/04/03 19:17:27;;;;;;;3.35;1.57;;;;;;;9.76;74.14;100608.90;1868006;77;21594;-61
2022/04/03 19:19:55;;;;;;;11.00;2.00;;;;;;;9.68;74.18;100605.22;1867894;77;21469;-62
2022/04/03 19:22:24;;;;;;;9.25;2.02;;;;;;;9.57;74.41;100600.39;1869984;75;21034;-63
2022/04/03 19:24:53;;;;;;;11.83;2.02;;;;;;;9.49;74.40;100605.52;1867864;76;21136;-62
2022/04/03 19:27:22;;;;;;;8.65;2.87;;;;;;;9.40;74.60;100616.75;1867864;76;21497;-65
2022/04/03 19:29:51;;;;;;;6.33;1.77;;;;;;;9.35;74.39;100616.52;1868087;77;21018;-62
2022/04/03 19:32:19;;;;;;;5.85;1.85;;;;;;;9.29;74.68;100612.34;1869004;75;21492;-64
2022/04/03 19:34:49;;;;;;;4.42;1.15;;;;;;;9.26;74.59;100608.06;1868380;75;21038;-64
2022/04/03 19:37:20;;;;;;;10.75;2.52;;;;;;;9.27;74.61;100603.66;1867975;77;21046;-63
2022/04/03 19:39:49;;;;;;;7.08;1.90;;;;;;;9.27;74.58;100601.88;1867847;76;21050;-63
2022/04/03 19:42:17;;;;;;;9.28;1.80;;;;;;;9.29;74.33;100607.08;1867937;75;21481;-62
2022/04/03 19:44:46;;;;;;;8.18;2.08;;;;;;;9.28;73.98;100616.75;1868080;77;21152;-63
2022/04/03 19:47:15;;;;;;;6.03;1.67;;;;;;;9.28;73.70;100608.86;1870051;75;21137;-64
2022/04/03 19:49:43;;;;;;;10.05;2.35;;;;;;;9.30;73.37;100625.89;1870929;75;21479;-62
2022/04/03 19:52:13;;;;;;;9.33;1.92;;;;;;;9.24;73.18;100629.59;1872700;77;21024;-64
2022/04/03 19:54:41;;;;;;;8.13;1.22;;;;;;;9.24;72.96;100645.36;1881227;75;21102;-61
2022/04/03 19:57:10;;;;;;;3.95;1.10;;;;;;;9.22;72.75;100655.50;1905298;74;21028;-61
2022/04/03 19:59:39;;;;;;;5.37;1.60;;;;;;;9.19;72.63;100656.48;1905181;74;21110;-62
2022/04/03 20:02:09;;;;;;;11.80;2.02;;;;;;;9.20;72.31;100645.07;1905166;75;21468;-63
2022/04/03 20:04:43;;;;;;;4.35;1.32;;;;;;;9.22;72.03;100656.38;1903422;74;21553;-62
2022/04/03 20:07:08;;;;;;;6.78;1.60;;;;;;;9.22;71.63;100661.64;1883830;75;21107;-62
2022/04/03 20:09:37;;;;;;;8.43;1.80;;;;;;;9.20;71.49;100663.46;1905350;75;21153;-64
2022/04/03 20:12:07;;;;;;;7.75;2.12;;;;;;;9.19;71.37;100670.92;1905177;75;21024;-62
2022/04/03 20:14:35;;;;;;;8.90;1.77;;;;;;;9.19;71.18;100666.14;1905305;75;21029;-64
2022/04/03 20:17:04;;;;;;;8.43;2.17;;;;;;;9.20;71.08;100674.41;1905391;75;21068;-62
2022/04/03 20:19:33;;;;;;;12.85;2.20;;;;;;;9.15;71.14;100670.63;1905288;75;21106;-64
2022/04/03 20:22:02;;;;;;;8.65;2.05;;;;;;;9.11;71.02;100680.85;1902799;75;21094;-62
2022/04/03 20:24:30;;;;;;;6.87;2.67;;;;;;;9.07;70.85;100685.78;1905158;75;21008;-65
2022/04/03 20:27:01;;;;;;;5.40;2.02;;;;;;;9.04;70.71;100694.63;1905139;75;21084;-62
2022/04/03 20:29:29;;;;;;;9.25;2.37;;;;;;;8.98;70.87;100711.04;1905146;75;21009;-62
2022/04/03 20:31:58;;;;;;;11.90;1.90;;;;;;;8.95;70.85;100713.32;1900539;75;21029;-64
2022/04/03 20:34:26;;;;;;;13.80;2.30;;;;;;;8.91;70.70;100716.97;1905164;75;21116;-61
2022/04/03 20:36:55;;;;;;;13.15;2.45;;;;;;;8.88;70.69;100724.47;1905364;75;21036;-64
2022/04/03 20:39:24;;;;;;;13.62;2.45;;;;;;;8.83;70.64;100719.81;1905135;75;21095;-62
2022/04/03 20:41:54;;;;;;;7.22;1.75;;;;;;;8.83;70.50;100711.94;1902823;75;21530;-62
2022/04/03 20:44:22;;;;;;;12.70;2.35;;;;;;;8.83;70.39;100725.06;1905169;75;21464;-63
2022/04/03 20:46:52;;;;;;;10.72;2.20;;;;;;;8.81;70.29;100725.56;1905358;75;21034;-62
2022/04/03 20:49:22;;;;;;;10.50;2.08;;;;;;;8.83;70.17;100722.44;1908917;74;21106;-63
2022/04/03 20:51:53;;;;;;;12.93;1.80;;;;;;;8.84;70.23;100725.48;1922098;74;20996;-62
2022/04/03 20:54:22;;;;;;;8.10;2.02;;;;;;;8.89;70.12;100744.58;1924480;74;21028;-62
2022/04/03 20:56:51;;;;;;;16.70;2.30;;;;;;;8.89;70.02;100744.58;1924529;74;21004;-62
2022/04/03 20:59:21;;;;;;;10.28;1.85;;;;;;;8.92;69.98;100764.62;1924609;74;21462;-65
2022/04/03 21:01:51;;;;;;;6.47;2.33;;;;;;;8.95;69.97;100749.23;1922215;74;21008;-62
2022/04/03 21:04:19;;;;;;;15.43;2.70;;;;;;;8.98;69.85;100755.69;1924409;74;21094;-62
2022/04/03 21:06:49;;;;;;;7.90;2.37;;;;;;;9.02;69.95;100758.64;1924726;74;21140;-62
2022/04/03 21:09:18;;;;;;;14.63;3.75;;;;;;;9.04;69.93;100756.36;1924590;74;21634;-62
2022/04/03 21:11:46;;;;;;;6.25;2.42;;;;;;;9.10;69.70;100789.91;1924547;74;21059;-62
2022/04/03 21:14:16;;;;;;;10.10;2.00;;;;;;;9.13;69.68;100795.92;1901690;74;21462;-62
2022/04/03 21:16:44;;;;;;;9.48;2.70;;;;;;;9.16;69.71;100789.23;1906718;74;21454;-63
2022/04/03 21:19:13;;;;;;;10.65;2.50;;;;;;;9.21;69.75;100809.66;1891374;76;21047;-63
2022/04/03 21:21:43;;;;;;;12.33;2.80;;;;;;;9.22;69.75;100806.13;1891365;76;21145;-64
2022/04/03 21:24:11;;;;;;;13.10;2.27;;;;;;;9.20;69.85;100811.90;1893794;74;21426;-64
2022/04/03 21:26:40;;;;;;;5.17;1.45;;;;;;;9.20;69.83;100809.70;1891509;76;21016;-64
2022/04/03 21:29:09;;;;;;;11.35;2.77;;;;;;;9.18;69.86;100801.02;1891464;76;21079;-64
2022/04/03 21:31:38;;;;;;;12.33;1.80;;;;;;;9.14;70.13;100813.39;1891411;76;21113;-64
2022/04/03 21:34:07;;;;;;;8.53;2.83;;;;;;;9.15;70.30;100819.06;1893678;74;21403;-65
2022/04/03 21:36:36;;;;;;;13.08;2.77;;;;;;;9.16;70.50;100835.21;1891524;76;21470;-63
2022/04/03 21:39:05;;;;;;;6.15;2.00;;;;;;;9.17;70.35;100838.26;1891609;76;21470;-62
2022/04/03 21:41:34;;;;;;;13.85;2.33;;;;;;;9.15;70.29;100833.51;1891317;75;21470;-62
2022/04/03 21:44:03;;;;;;;12.58;4.35;;;;;;;9.11;70.36;100842.83;1893529;74;21047;-62
2022/04/03 21:46:32;;;;;;;10.98;4.33;;;;;;;9.10;70.35;100847.23;1891530;76;21532;-62
2022/04/03 21:49:04;;;;;;;21.00;4.45;;;;;;;9.06;70.10;100842.53;1891330;76;21490;-62
2022/04/03 21:51:33;;;;;;;21.40;5.70;;;;;;;9.04;69.94;100838.24;1876549;75;21048;-62
2022/04/03 21:54:01;;;;;;;16.65;5.35;;;;;;;8.98;69.73;100839.30;1872749;76;21036;-63
2022/04/03 21:56:30;;;;;;;15.78;3.45;;;;;;;8.95;69.81;100838.06;1872557;77;21121;-63
2022/04/03 21:58:59;;;;;;;13.03;3.15;;;;;;;8.94;70.28;100851.23;1877430;75;21087;-62
2022/04/03 22:01:27;;;;;;;8.95;2.75;;;;;;;8.96;70.33;100855.98;1905033;75;21491;-62
2022/04/03 22:03:57;;;;;;;11.75;3.35;;;;;;;8.96;70.04;100848.11;1905096;75;21044;-62
2022/04/03 22:06:26;;;;;;;12.85;3.35;;;;;;;8.93;69.82;100833.75;1905264;75;21048;-63
2022/04/03 22:08:54;;;;;;;12.78;2.83;;;;;;;8.84;69.96;100844.09;1904957;75;21024;-64
2022/04/03 22:11:23;;;;;;;12.58;2.45;;;;;;;8.78;70.05;100848.20;1903315;75;21033;-62
2022/04/03 22:13:51;;;;;;;15.13;2.95;;;;;;;8.73;70.02;100850.98;1905320;75;21036;-62
2022/04/03 22:16:20;;;;;;;13.70;3.70;;;;;;;8.71;70.14;100865.92;1905446;75;20997;-62
2022/04/03 22:18:48;;;;;;;18.35;3.10;;;;;;;8.68;70.22;100881.75;1905211;75;21145;-62
2022/04/03 22:21:17;;;;;;;8.48;2.27;;;;;;;8.65;70.33;100879.20;1905135;75;21094;-62
2022/04/03 22:23:46;;;;;;;10.13;2.52;;;;;;;8.61;70.49;100885.02;1904567;75;21455;-62
2022/04/03 22:26:15;;;;;;;6.92;1.90;;;;;;;8.58;70.49;100893.44;1900567;75;21175;-62
2022/04/03 22:28:44;;;;;;;12.23;2.20;;;;;;;8.56;70.42;100886.03;1872962;76;21485;-62
2022/04/03 22:31:13;;;;;;;6.25;2.22;;;;;;;8.53;70.33;100890.07;1872738;76;21808;-62
2022/04/03 22:33:41;;;;;;;7.92;2.40;;;;;;;8.49;70.25;100892.77;1883158;75;21446;-62
2022/04/03 22:36:10;;;;;;;6.42;2.15;;;;;;;8.49;70.19;100890.15;1905142;75;21103;-62
2022/04/03 22:38:39;;;;;;;7.65;2.58;;;;;;;8.50;70.43;100886.63;1905299;75;21080;-61
2022/04/03 22:41:07;;;;;;;8.35;1.85;;;;;;;8.53;70.40;100890.07;1905221;75;21061;-62
2022/04/03 22:43:36;;;;;;;10.13;1.95;;;;;;;8.52;70.53;100880.47;1902914;75;21236;-61
2022/04/03 22:46:05;;;;;;;15.45;2.17;;;;;;;8.47;70.43;100882.77;1905183;74;21032;-62
2022/04/03 22:48:33;;;;;;;8.70;2.27;;;;;;;8.45;70.38;100887.67;1905133;75;21119;-61
2022/04/03 22:51:02;;;;;;;10.78;2.05;;;;;;;8.40;70.25;100890.83;1910842;74;21067;-63
2022/04/03 22:53:30;;;;;;;10.45;2.08;;;;;;;8.34;70.22;100898.42;1924722;74;21032;-63
2022/04/03 22:55:59;;;;;;;11.30;2.17;;;;;;;8.31;70.24;100905.91;1924572;74;21067;-63
2022/04/03 22:58:28;;;;;;;5.40;1.70;;;;;;;8.28;70.30;100907.75;1922226;74;21075;-65
2022/04/03 23:00:56;;;;;;;9.10;1.72;;;;;;;8.22;70.33;100907.46;1906540;74;21040;-63
2022/04/03 23:03:25;;;;;;;12.30;2.30;;;;;;;8.22;70.45;100919.73;1903203;74;21467;-62
2022/04/03 23:05:54;;;;;;;10.50;2.20;;;;;;;8.18;70.47;100922.02;1909621;74;21047;-62
2022/04/03 23:08:22;;;;;;;9.13;1.98;;;;;;;8.15;70.48;100932.13;1892906;74;20991;-62
